This is the latest recevied weather packets stored in our database for station/object KC9ZAR-13. If no packets are shown the sender has not sent any weather packets the latest 10 day(s).
| Time | Temp. | Humidity | Pressure | Rain* | Wind** | Luminosity | Snow |
|---|---|---|---|---|---|---|---|
| 1777640705 | 12.22° C | 75% | 1012.8 hPa | 0 mm | - | 0 W/m² | - |
| 1777639506 | 11.67° C | 75% | 1012.8 hPa | 0 mm | - | 0 W/m² | - |
| 1777636206 | 11.67° C | 76% | 1012.1 hPa | 0 mm | - | 0 W/m² | - |
| 1777632605 | 11.67° C | 81% | 1011.6 hPa | 0 mm | - | 0 W/m² | - |
| 1777629905 | 12.78° C | 73% | 1011.4 hPa | 0 mm | - | 0 W/m² | - |
| 1777629305 | 12.78° C | 71% | 1011.4 hPa | 0 mm | - | 0 W/m² | - |
| 1777628705 | 12.78° C | 70% | 1011.5 hPa | 0 mm | - | 0 W/m² | - |
| 1777626306 | 12.78° C | 69% | 1011.6 hPa | 0 mm | - | 0 W/m² | - |
| 1777626005 | 12.78° C | 69% | 1011.6 hPa | 0 mm | - | 0 W/m² | - |
| 1777625405 | 12.78° C | 69% | 1011.4 hPa | 0 mm | - | 0 W/m² | - |
| 1777624505 | 12.78° C | 67% | 1011.1 hPa | 0 mm | - | 0 W/m² | - |
| 1777622404 | 12.78° C | 68% | 1011.2 hPa | 0 mm | - | 0 W/m² | - |
| 1777620905 | 12.78° C | 68% | 1011.3 hPa | 0 mm | - | 0 W/m² | - |
| 1777617005 | 12.78° C | 65% | 1012.1 hPa | 0 mm | - | 0 W/m² | - |
| 1777613104 | 12.78° C | 64% | 1012.3 hPa | 0 mm | - | 0 W/m² | - |
| 1777612504 | 12.22° C | 66% | 1012.4 hPa | 0 mm | - | 0 W/m² | - |
| 1777611604 | 11.11° C | 75% | 1012.6 hPa | 0 mm | - | 0 W/m² | - |
| 1777611005 | 10.56° C | 80% | 1012.6 hPa | 0 mm | - | 0 W/m² | - |
| 1777610405 | 10.56° C | 81% | 1012.6 hPa | 0 mm | - | 0 W/m² | - |
| 1777605904 | 10° C | 79% | 1013.1 hPa | 0 mm | - | 0 W/m² | - |
| 1777605305 | 10° C | 78% | 1013.2 hPa | 0 mm | - | 0 W/m² | - |
| 1777605005 | 10° C | 78% | 1013.3 hPa | 0 mm | - | 0 W/m² | - |
| 1777603804 | 10.56° C | 77% | 1013.3 hPa | 0 mm | - | 0 W/m² | - |
| 1777603204 | 10.56° C | 75% | 1013.4 hPa | 0 mm | - | 0 W/m² | - |
| 1777600204 | 11.67° C | 70% | 1013.1 hPa | 0 mm | - | 0 W/m² | - |
* Rain latest hour (hover to see other rain measurements)
** Current wind speed in m/s (hover to see current wind gust speed)